createdAt,value
2019-03-30T00:01:40.509Z,4.40
2019-03-30T00:04:49.077Z,4.40
2019-03-30T00:07:57.728Z,4.50
2019-03-30T00:11:06.299Z,4.60
2019-03-30T00:14:14.883Z,4.60
2019-03-30T00:17:23.498Z,4.70
2019-03-30T00:20:32.207Z,4.80
2019-03-30T00:23:40.837Z,4.80
2019-03-30T00:26:49.367Z,4.80
2019-03-30T00:29:58.031Z,4.80
2019-03-30T00:33:06.577Z,4.80
2019-03-30T00:36:15.155Z,4.70
2019-03-30T00:39:23.778Z,4.70
2019-03-30T00:42:33.981Z,4.60
2019-03-30T00:45:43.069Z,4.50
2019-03-30T00:48:51.653Z,4.50
2019-03-30T00:52:00.294Z,4.40
2019-03-30T00:55:09.247Z,4.40
2019-03-30T00:58:18.000Z,4.40
2019-03-30T01:01:26.632Z,4.40
2019-03-30T01:04:35.193Z,4.30
2019-03-30T01:07:43.746Z,4.20
2019-03-30T01:10:52.358Z,4.10
2019-03-30T01:14:00.911Z,4.00
2019-03-30T01:17:10.369Z,4.10
2019-03-30T01:20:18.927Z,4.10
2019-03-30T01:23:27.493Z,4.20
2019-03-30T01:26:36.420Z,4.30
2019-03-30T01:29:44.962Z,4.20
2019-03-30T01:32:53.659Z,4.20
2019-03-30T01:36:02.249Z,4.20
2019-03-30T01:39:11.079Z,4.20
2019-03-30T01:42:19.857Z,4.30
2019-03-30T01:45:28.720Z,4.20
2019-03-30T01:48:37.555Z,4.30
2019-03-30T01:51:46.108Z,4.30
2019-03-30T01:54:54.726Z,4.30
2019-03-30T01:58:03.292Z,4.30
2019-03-30T02:01:12.764Z,4.20
2019-03-30T02:04:21.314Z,4.20
2019-03-30T02:07:29.882Z,4.20
2019-03-30T02:10:45.828Z,4.20
2019-03-30T02:13:54.446Z,4.20
2019-03-30T02:17:02.999Z,4.20
2019-03-30T02:20:30.403Z,4.20
2019-03-30T02:23:28.681Z,4.20
2019-03-30T02:26:38.501Z,4.10
2019-03-30T02:29:47.648Z,4.10
2019-03-30T02:32:56.647Z,4.10
2019-03-30T02:36:05.380Z,4.20
2019-03-30T02:39:13.987Z,4.20
2019-03-30T02:42:22.524Z,4.20
2019-03-30T02:45:31.219Z,4.30
2019-03-30T02:48:39.808Z,4.20
2019-03-30T02:51:48.371Z,4.10
2019-03-30T02:54:57.059Z,4.00
2019-03-30T02:58:05.597Z,4.00
2019-03-30T03:01:14.232Z,3.90
2019-03-30T03:04:22.818Z,3.80
2019-03-30T03:07:32.031Z,3.80
2019-03-30T03:10:40.931Z,3.70
2019-03-30T03:13:49.853Z,3.70
2019-03-30T03:16:59.170Z,3.70
2019-03-30T03:20:08.092Z,3.70
2019-03-30T03:23:16.704Z,3.70
2019-03-30T03:26:25.341Z,3.60
2019-03-30T03:29:33.854Z,3.50
2019-03-30T03:32:42.495Z,3.40
2019-03-30T03:35:51.026Z,3.40
2019-03-30T03:39:01.322Z,3.40
2019-03-30T03:42:11.655Z,3.40
2019-03-30T03:45:20.353Z,3.40
2019-03-30T03:48:28.889Z,3.40
2019-03-30T03:51:37.506Z,3.40
2019-03-30T03:54:46.618Z,3.40
2019-03-30T03:57:56.197Z,3.30
2019-03-30T04:01:05.635Z,3.30
2019-03-30T04:04:16.600Z,3.20
2019-03-30T04:07:27.232Z,3.20
2019-03-30T04:10:38.625Z,3.20
2019-03-30T04:13:51.222Z,3.10
2019-03-30T04:16:59.796Z,3.10
2019-03-30T04:20:09.698Z,3.00
2019-03-30T04:23:18.248Z,2.90
2019-03-30T04:26:26.834Z,2.80
2019-03-30T04:29:35.403Z,2.70
2019-03-30T04:32:44.033Z,2.60
2019-03-30T04:35:52.644Z,2.60
2019-03-30T04:39:01.239Z,2.60
2019-03-30T04:42:11.339Z,2.70
2019-03-30T04:45:19.935Z,2.80
2019-03-30T04:48:29.606Z,2.90
2019-03-30T04:51:38.657Z,2.90
2019-03-30T04:54:47.797Z,2.90
2019-03-30T04:57:57.832Z,2.80
2019-03-30T05:01:06.613Z,2.80
2019-03-30T05:04:15.378Z,2.80
2019-03-30T05:07:24.031Z,2.80
2019-03-30T05:10:32.792Z,2.70
2019-03-30T05:13:41.436Z,2.70
2019-03-30T05:16:50.941Z,2.80
2019-03-30T05:19:59.539Z,2.90
2019-03-30T05:23:08.145Z,3.00
2019-03-30T05:26:16.742Z,3.10
2019-03-30T05:29:25.618Z,3.10
2019-03-30T05:32:34.203Z,3.30
2019-03-30T05:35:42.819Z,3.40
2019-03-30T05:38:51.379Z,3.60
2019-03-30T05:42:00.093Z,4.30
2019-03-30T05:45:10.665Z,5.30
2019-03-30T05:48:20.452Z,6.10
2019-03-30T05:51:29.029Z,6.80
2019-03-30T05:54:37.657Z,7.70
2019-03-30T05:57:46.419Z,8.00
2019-03-30T06:00:55.293Z,8.40
2019-03-30T06:04:03.977Z,7.90
2019-03-30T06:07:14.684Z,8.30
2019-03-30T06:10:24.060Z,9.20
2019-03-30T06:13:32.644Z,9.50
2019-03-30T06:16:41.195Z,9.90
2019-03-30T06:19:49.891Z,9.40
2019-03-30T06:22:58.418Z,9.20
2019-03-30T06:26:07.054Z,8.90
2019-03-30T06:29:16.078Z,9.40
2019-03-30T06:32:24.691Z,9.70
2019-03-30T06:35:33.305Z,9.30
2019-03-30T06:38:41.879Z,8.80
2019-03-30T06:41:50.499Z,8.40
2019-03-30T06:44:59.035Z,8.10
2019-03-30T06:48:09.527Z,7.90
2019-03-30T06:51:18.107Z,8.20
2019-03-30T06:54:27.609Z,8.80
2019-03-30T06:57:36.346Z,9.00
2019-03-30T07:00:46.859Z,8.80
2019-03-30T07:03:55.943Z,9.60
2019-03-30T07:07:05.287Z,9.50
2019-03-30T07:10:14.592Z,9.40
2019-03-30T07:13:26.776Z,9.70
2019-03-30T07:16:40.049Z,10.10
2019-03-30T07:19:51.488Z,9.60
2019-03-30T07:23:11.378Z,9.80
2019-03-30T07:26:10.881Z,10.40
2019-03-30T07:29:19.626Z,11.00
2019-03-30T07:32:28.291Z,11.40
2019-03-30T07:35:36.935Z,11.20
2019-03-30T07:38:49.080Z,11.60
2019-03-30T07:41:57.684Z,11.50
2019-03-30T07:45:06.511Z,11.80
2019-03-30T07:48:15.278Z,12.70
2019-03-30T07:51:23.891Z,13.50
2019-03-30T07:54:32.487Z,13.90
2019-03-30T07:57:41.163Z,14.50
2019-03-30T08:00:51.983Z,14.70
2019-03-30T08:04:00.601Z,15.50
2019-03-30T08:07:09.385Z,15.40
2019-03-30T08:10:18.187Z,16.20
2019-03-30T08:13:29.770Z,16.40
2019-03-30T08:16:38.581Z,17.10
2019-03-30T08:19:50.261Z,17.40
2019-03-30T08:22:58.517Z,18.10
2019-03-30T08:26:07.250Z,16.70
2019-03-30T08:29:16.057Z,16.70
2019-03-30T08:32:24.774Z,17.60
2019-03-30T08:35:33.753Z,18.30
2019-03-30T08:38:42.408Z,17.30
2019-03-30T08:41:52.299Z,18.00
2019-03-30T08:45:01.124Z,19.10
2019-03-30T08:48:09.846Z,19.10
2019-03-30T08:51:20.826Z,19.30
2019-03-30T08:54:29.452Z,19.00
2019-03-30T08:57:38.026Z,18.20
2019-03-30T09:00:46.630Z,19.30
2019-03-30T09:03:56.993Z,18.80
2019-03-30T09:07:06.417Z,17.90
2019-03-30T09:10:15.018Z,18.60
2019-03-30T09:13:23.690Z,19.30
2019-03-30T09:16:33.535Z,18.50
2019-03-30T09:19:42.110Z,19.50
2019-03-30T09:22:50.695Z,19.60
2019-03-30T09:25:59.253Z,19.70
2019-03-30T09:29:07.896Z,19.70
2019-03-30T09:32:18.186Z,20.20
2019-03-30T09:35:26.815Z,20.00
2019-03-30T09:38:35.494Z,20.10
2019-03-30T09:41:44.114Z,20.20
2019-03-30T09:44:53.942Z,19.40
2019-03-30T09:48:02.584Z,19.50
2019-03-30T09:51:11.121Z,19.80
2019-03-30T09:54:23.978Z,20.30
2019-03-30T09:57:30.403Z,18.80
2019-03-30T10:00:39.175Z,19.30
2019-03-30T10:03:47.746Z,19.70
2019-03-30T10:06:56.476Z,20.40
2019-03-30T10:10:05.684Z,18.90
2019-03-30T10:13:14.312Z,18.20
2019-03-30T10:16:22.907Z,19.30
2019-03-30T10:19:31.600Z,19.40
2019-03-30T10:22:42.232Z,20.10
2019-03-30T10:25:50.570Z,20.50
2019-03-30T10:29:00.385Z,20.80
2019-03-30T10:32:09.071Z,20.20
2019-03-30T10:35:17.639Z,20.10
2019-03-30T10:38:26.803Z,20.20
2019-03-30T10:41:35.472Z,20.40
2019-03-30T10:44:44.037Z,19.20
2019-03-30T10:47:52.672Z,19.00
2019-03-30T10:51:01.766Z,19.50
2019-03-30T10:54:10.431Z,19.80
2019-03-30T10:57:19.022Z,20.40
2019-03-30T11:00:40.007Z,20.30
2019-03-30T11:03:49.447Z,20.60
2019-03-30T11:06:58.613Z,20.50
2019-03-30T11:10:08.202Z,20.90
2019-03-30T11:13:16.772Z,21.30
2019-03-30T11:16:25.429Z,21.20
2019-03-30T11:19:34.044Z,20.90
2019-03-30T11:22:42.644Z,20.90
2019-03-30T11:25:51.227Z,20.00
2019-03-30T11:29:00.969Z,20.00
2019-03-30T11:32:09.596Z,20.00
2019-03-30T11:35:18.135Z,19.80
2019-03-30T11:38:26.988Z,19.80
2019-03-30T11:41:35.595Z,19.60
2019-03-30T11:44:47.593Z,19.90
2019-03-30T11:47:58.054Z,20.30
2019-03-30T11:51:06.643Z,20.50
2019-03-30T11:54:15.393Z,20.30
2019-03-30T11:57:23.924Z,20.00
2019-03-30T12:00:32.495Z,20.30
2019-03-30T12:03:41.107Z,20.70
2019-03-30T12:06:51.823Z,20.80
2019-03-30T12:10:00.017Z,20.70
2019-03-30T12:13:08.711Z,21.00
2019-03-30T12:16:17.277Z,21.50
2019-03-30T12:19:25.871Z,21.10
2019-03-30T12:22:34.865Z,21.00
2019-03-30T12:25:43.547Z,20.60
2019-03-30T12:28:52.087Z,20.30
2019-03-30T12:32:00.799Z,19.90
2019-03-30T12:35:09.847Z,19.90
2019-03-30T12:38:18.559Z,20.00
2019-03-30T12:41:27.165Z,20.00
2019-03-30T12:44:35.836Z,20.60
2019-03-30T12:47:46.093Z,20.30
2019-03-30T12:50:54.905Z,20.60
2019-03-30T12:54:05.258Z,20.50
2019-03-30T12:57:15.515Z,20.50
2019-03-30T13:00:24.272Z,20.20
2019-03-30T13:03:32.871Z,20.10
2019-03-30T13:06:41.568Z,19.70
2019-03-30T13:09:50.226Z,19.30
2019-03-30T13:12:59.037Z,19.10
2019-03-30T13:16:07.572Z,18.90
2019-03-30T13:19:16.190Z,18.70
2019-03-30T13:22:24.794Z,18.40
2019-03-30T13:25:33.441Z,18.20
2019-03-30T13:28:42.120Z,18.20
2019-03-30T13:31:50.734Z,18.20
2019-03-30T13:35:00.753Z,18.10
2019-03-30T13:38:10.386Z,17.80
2019-03-30T13:41:19.149Z,17.90
2019-03-30T13:44:27.709Z,17.60
2019-03-30T13:47:37.989Z,17.40
2019-03-30T13:50:46.618Z,17.30
2019-03-30T13:53:55.289Z,17.30
2019-03-30T13:57:05.386Z,17.20
2019-03-30T14:00:15.661Z,17.30
2019-03-30T14:03:24.292Z,17.30
2019-03-30T14:06:32.867Z,17.10
2019-03-30T14:09:42.404Z,17.10
2019-03-30T14:12:51.167Z,17.30
2019-03-30T14:15:59.862Z,17.40
2019-03-30T14:19:11.218Z,17.50
2019-03-30T14:22:21.182Z,17.40
2019-03-30T14:25:29.890Z,17.40
2019-03-30T14:28:42.266Z,17.40
2019-03-30T14:31:51.235Z,17.30
2019-03-30T14:35:00.402Z,17.30
2019-03-30T14:38:17.258Z,17.40
2019-03-30T14:41:33.554Z,17.30
2019-03-30T14:45:07.346Z,17.30
2019-03-30T14:48:19.444Z,17.40
2019-03-30T14:51:32.409Z,17.40
2019-03-30T14:54:52.678Z,17.30
2019-03-30T14:57:57.472Z,17.30
2019-03-30T15:01:07.023Z,17.20
2019-03-30T15:04:16.215Z,17.20
2019-03-30T15:07:48.198Z,17.20
2019-03-30T15:10:58.954Z,17.20
2019-03-30T15:14:09.653Z,17.40
2019-03-30T15:17:19.244Z,17.40
2019-03-30T15:20:28.003Z,17.40
2019-03-30T15:23:36.828Z,17.50
2019-03-30T15:26:53.889Z,17.40
2019-03-30T15:29:55.659Z,17.40
2019-03-30T15:33:04.260Z,17.40
2019-03-30T15:36:13.134Z,17.30
2019-03-30T15:39:21.828Z,17.40
2019-03-30T15:42:30.411Z,17.30
2019-03-30T15:45:41.516Z,17.30
2019-03-30T15:48:50.158Z,17.30
2019-03-30T15:52:13.011Z,17.20
2019-03-30T15:55:09.470Z,17.10
2019-03-30T15:58:18.070Z,17.10
2019-03-30T16:01:26.631Z,17.00
2019-03-30T16:04:35.626Z,17.00
2019-03-30T16:07:44.273Z,17.00
2019-03-30T16:10:52.847Z,16.90
2019-03-30T16:14:01.440Z,16.90
2019-03-30T16:17:10.023Z,16.80
2019-03-30T16:20:18.681Z,16.80
2019-03-30T16:23:27.562Z,16.70
2019-03-30T16:26:42.239Z,16.70
2019-03-30T16:29:46.595Z,16.60
2019-03-30T16:32:55.274Z,16.60
2019-03-30T16:36:03.941Z,16.50
2019-03-30T16:39:12.793Z,16.40
2019-03-30T16:42:21.520Z,16.30
2019-03-30T16:45:30.397Z,16.30
2019-03-30T16:48:40.042Z,16.20
2019-03-30T16:51:48.953Z,16.10
2019-03-30T16:54:57.497Z,16.00
2019-03-30T16:58:06.104Z,15.90
2019-03-30T17:01:14.794Z,15.80
2019-03-30T17:04:23.404Z,15.70
2019-03-30T17:07:32.122Z,15.50
2019-03-30T17:10:42.060Z,15.40
2019-03-30T17:13:52.351Z,15.30
2019-03-30T17:17:00.903Z,15.10
2019-03-30T17:20:10.410Z,15.00
2019-03-30T17:23:20.953Z,14.90
2019-03-30T17:26:29.666Z,14.70
2019-03-30T17:29:40.024Z,14.60
2019-03-30T17:32:50.374Z,14.50
2019-03-30T17:35:58.933Z,14.40
2019-03-30T17:39:10.489Z,14.40
2019-03-30T17:42:19.140Z,14.30
2019-03-30T17:45:29.097Z,14.10
2019-03-30T17:48:38.128Z,14.00
2019-03-30T17:51:46.661Z,13.90
2019-03-30T17:54:55.452Z,13.70
2019-03-30T17:58:12.904Z,13.60
2019-03-30T18:01:15.934Z,13.60
2019-03-30T18:04:24.806Z,13.50
2019-03-30T18:07:33.442Z,13.40
2019-03-30T18:10:42.043Z,13.30
2019-03-30T18:13:50.629Z,13.20
2019-03-30T18:16:59.419Z,13.10
2019-03-30T18:20:08.704Z,12.90
2019-03-30T18:23:17.422Z,12.70
2019-03-30T18:26:26.055Z,12.60
2019-03-30T18:29:34.700Z,12.60
2019-03-30T18:32:44.005Z,12.40
2019-03-30T18:35:52.954Z,12.30
2019-03-30T18:39:09.255Z,12.20
2019-03-30T18:42:14.600Z,12.10
2019-03-30T18:45:29.489Z,12.00
2019-03-30T18:48:38.268Z,11.90
2019-03-30T18:51:48.757Z,11.80
2019-03-30T18:54:57.693Z,11.60
2019-03-30T18:58:06.969Z,11.40
2019-03-30T19:01:16.403Z,11.40
2019-03-30T19:04:25.052Z,11.50
2019-03-30T19:07:33.693Z,11.60
2019-03-30T19:10:42.274Z,11.60
2019-03-30T19:13:51.512Z,11.60
2019-03-30T19:17:01.545Z,11.70
2019-03-30T19:20:10.426Z,11.80
2019-03-30T19:23:19.107Z,11.70
2019-03-30T19:26:27.875Z,11.70
2019-03-30T19:29:37.696Z,11.70
2019-03-30T19:32:47.783Z,11.70
2019-03-30T19:35:56.741Z,11.70
2019-03-30T19:39:08.228Z,11.70
2019-03-30T19:42:19.150Z,11.60
2019-03-30T19:45:27.925Z,11.60
2019-03-30T19:48:37.409Z,11.60
2019-03-30T19:51:46.504Z,11.70
2019-03-30T19:54:55.034Z,11.70
2019-03-30T19:58:05.886Z,11.80
2019-03-30T20:01:15.104Z,11.90
2019-03-30T20:04:23.807Z,11.90
2019-03-30T20:07:32.379Z,11.90
2019-03-30T20:10:42.025Z,11.90
2019-03-30T20:13:50.682Z,11.80
2019-03-30T20:16:59.386Z,11.90
2019-03-30T20:20:08.808Z,11.80
2019-03-30T20:23:17.665Z,11.80
2019-03-30T20:26:26.581Z,11.90
2019-03-30T20:29:35.154Z,11.80
2019-03-30T20:32:43.779Z,11.90
2019-03-30T20:35:52.397Z,11.80
2019-03-30T20:39:01.029Z,11.80
2019-03-30T20:42:11.345Z,11.80
2019-03-30T20:45:20.017Z,11.80
2019-03-30T20:48:28.542Z,11.80
2019-03-30T20:51:37.218Z,11.70
2019-03-30T20:54:45.973Z,11.60
2019-03-30T20:57:54.567Z,11.60
2019-03-30T21:01:03.476Z,11.40
2019-03-30T21:04:12.232Z,11.40
2019-03-30T21:07:20.915Z,11.40
2019-03-30T21:10:29.540Z,11.50
2019-03-30T21:13:38.156Z,11.50
2019-03-30T21:16:46.791Z,11.50
2019-03-30T21:19:55.377Z,11.40
2019-03-30T21:23:03.995Z,11.40
2019-03-30T21:26:12.671Z,11.40
2019-03-30T21:29:21.306Z,11.30
2019-03-30T21:32:30.534Z,11.30
2019-03-30T21:35:39.772Z,11.30
2019-03-30T21:38:48.392Z,11.30
2019-03-30T21:41:57.015Z,11.30
2019-03-30T21:45:05.997Z,11.20
2019-03-30T21:48:14.620Z,11.10
2019-03-30T21:51:23.198Z,11.10
2019-03-30T21:54:32.095Z,11.00
2019-03-30T21:57:40.849Z,11.00
2019-03-30T22:00:49.450Z,11.00
2019-03-30T22:03:58.085Z,10.90
2019-03-30T22:07:07.482Z,10.90
2019-03-30T22:10:19.569Z,10.80
2019-03-30T22:13:28.320Z,10.70
2019-03-30T22:16:38.369Z,10.70
2019-03-30T22:19:46.957Z,10.60
2019-03-30T22:22:55.867Z,10.60
2019-03-30T22:26:06.961Z,10.60
2019-03-30T22:29:15.571Z,10.60
2019-03-30T22:32:24.177Z,10.50
2019-03-30T22:35:34.582Z,10.50
2019-03-30T22:38:43.239Z,10.40
2019-03-30T22:41:52.349Z,10.40
2019-03-30T22:45:00.929Z,10.40
2019-03-30T22:48:09.659Z,10.40
2019-03-30T22:51:18.347Z,10.40
2019-03-30T22:54:26.965Z,10.40
2019-03-30T22:57:37.163Z,10.40
2019-03-30T23:01:02.917Z,10.30
2019-03-30T23:04:12.033Z,10.30
2019-03-30T23:07:20.676Z,10.20
2019-03-30T23:10:29.306Z,10.20
2019-03-30T23:13:38.265Z,10.00
2019-03-30T23:16:46.858Z,10.00
2019-03-30T23:19:55.614Z,9.90
2019-03-30T23:23:05.500Z,9.90
2019-03-30T23:26:14.941Z,9.80
2019-03-30T23:29:24.181Z,9.80
2019-03-30T23:32:32.805Z,9.70
2019-03-30T23:35:41.488Z,9.70
2019-03-30T23:38:50.237Z,9.60
2019-03-30T23:41:58.878Z,9.60
2019-03-30T23:45:07.978Z,9.60
2019-03-30T23:48:16.587Z,9.60
2019-03-30T23:51:25.219Z,9.50
2019-03-30T23:54:33.789Z,9.50
2019-03-30T23:57:42.441Z,9.50
